sensor_id;sensor_type;location;lat;lon;timestamp;pressure;altitude;pressure_sealevel;temperature;humidity
85812;BME280;76886;52.146;20.718;2024-02-26T00:00:30;99610;;;7.0;65.5
85812;BME280;76886;52.146;20.718;2024-02-26T00:01:31;99610;;;7.0;65.1
85812;BME280;76886;52.146;20.718;2024-02-26T00:02:30;99610;;;7.0;65.2
85812;BME280;76886;52.146;20.718;2024-02-26T00:03:30;99610;;;7.0;65.1
85812;BME280;76886;52.146;20.718;2024-02-26T00:04:30;99600;;;7.0;64.9
85812;BME280;76886;52.146;20.718;2024-02-26T00:05:30;99600;;;6.9;65.1
85812;BME280;76886;52.146;20.718;2024-02-26T00:06:30;99600;;;6.9;65.4
85812;BME280;76886;52.146;20.718;2024-02-26T00:07:30;99600;;;6.8;66.1
85812;BME280;76886;52.146;20.718;2024-02-26T00:08:30;99600;;;6.8;65.9
85812;BME280;76886;52.146;20.718;2024-02-26T00:09:30;99600;;;6.8;65.7
85812;BME280;76886;52.146;20.718;2024-02-26T00:10:30;99600;;;6.9;65.3
85812;BME280;76886;52.146;20.718;2024-02-26T00:11:30;99600;;;6.8;65.3
85812;BME280;76886;52.146;20.718;2024-02-26T00:12:30;99600;;;6.8;65.7
85812;BME280;76886;52.146;20.718;2024-02-26T00:13:30;99600;;;6.9;65.9
85812;BME280;76886;52.146;20.718;2024-02-26T00:14:30;99600;;;6.9;65.7
85812;BME280;76886;52.146;20.718;2024-02-26T00:15:30;99590;;;6.9;65.5
85812;BME280;76886;52.146;20.718;2024-02-26T00:16:30;99600;;;6.9;65.0
85812;BME280;76886;52.146;20.718;2024-02-26T00:17:30;99600;;;6.9;65.1
85812;BME280;76886;52.146;20.718;2024-02-26T00:18:30;99600;;;6.8;65.1
85812;BME280;76886;52.146;20.718;2024-02-26T00:19:30;99600;;;6.8;65.4
85812;BME280;76886;52.146;20.718;2024-02-26T00:20:30;99590;;;6.8;65.5
85812;BME280;76886;52.146;20.718;2024-02-26T00:21:30;99590;;;6.8;65.6
85812;BME280;76886;52.146;20.718;2024-02-26T00:22:31;99590;;;6.8;65.4
85812;BME280;76886;52.146;20.718;2024-02-26T00:23:30;99590;;;6.8;65.4
85812;BME280;76886;52.146;20.718;2024-02-26T00:24:30;99590;;;6.8;65.1
85812;BME280;76886;52.146;20.718;2024-02-26T00:25:30;99590;;;6.8;65.0
85812;BME280;76886;52.146;20.718;2024-02-26T00:26:30;99590;;;6.8;64.9
85812;BME280;76886;52.146;20.718;2024-02-26T00:27:30;99590;;;6.8;64.8
85812;BME280;76886;52.146;20.718;2024-02-26T00:28:30;99590;;;6.8;66.0
85812;BME280;76886;52.146;20.718;2024-02-26T00:29:30;99590;;;6.8;65.8
85812;BME280;76886;52.146;20.718;2024-02-26T00:30:30;99590;;;6.8;66.0
85812;BME280;76886;52.146;20.718;2024-02-26T00:31:30;99590;;;6.7;67.3
85812;BME280;76886;52.146;20.718;2024-02-26T00:32:30;99600;;;6.7;67.6
85812;BME280;76886;52.146;20.718;2024-02-26T00:33:30;99590;;;6.7;66.9
85812;BME280;76886;52.146;20.718;2024-02-26T00:34:30;99590;;;6.7;67.0
85812;BME280;76886;52.146;20.718;2024-02-26T00:35:30;99590;;;6.7;66.7
85812;BME280;76886;52.146;20.718;2024-02-26T00:36:30;99590;;;6.7;66.7
85812;BME280;76886;52.146;20.718;2024-02-26T00:37:30;99590;;;6.8;66.6
85812;BME280;76886;52.146;20.718;2024-02-26T00:38:30;99590;;;6.7;66.8
85812;BME280;76886;52.146;20.718;2024-02-26T00:39:30;99590;;;6.8;66.6
85812;BME280;76886;52.146;20.718;2024-02-26T00:40:30;99590;;;6.7;66.3
85812;BME280;76886;52.146;20.718;2024-02-26T00:41:30;99580;;;6.7;66.1
85812;BME280;76886;52.146;20.718;2024-02-26T00:42:30;99580;;;6.7;65.8
85812;BME280;76886;52.146;20.718;2024-02-26T00:43:30;99580;;;6.7;65.7
85812;BME280;76886;52.146;20.718;2024-02-26T00:44:30;99580;;;6.6;66.1
85812;BME280;76886;52.146;20.718;2024-02-26T00:45:30;99580;;;6.6;65.8
85812;BME280;76886;52.146;20.718;2024-02-26T00:46:30;99580;;;6.6;65.7
85812;BME280;76886;52.146;20.718;2024-02-26T00:47:30;99580;;;6.6;65.6
85812;BME280;76886;52.146;20.718;2024-02-26T00:48:30;99580;;;6.6;65.3
85812;BME280;76886;52.146;20.718;2024-02-26T00:49:30;99580;;;6.6;65.4
85812;BME280;76886;52.146;20.718;2024-02-26T00:50:30;99580;;;6.5;65.6
85812;BME280;76886;52.146;20.718;2024-02-26T00:51:30;99580;;;6.5;66.3
85812;BME280;76886;52.146;20.718;2024-02-26T00:52:30;99580;;;6.5;65.8
85812;BME280;76886;52.146;20.718;2024-02-26T00:53:30;99580;;;6.5;66.4
85812;BME280;76886;52.146;20.718;2024-02-26T00:54:30;99580;;;6.5;66.5
85812;BME280;76886;52.146;20.718;2024-02-26T00:55:30;99580;;;6.5;66.6
85812;BME280;76886;52.146;20.718;2024-02-26T00:56:30;99580;;;6.5;66.5
85812;BME280;76886;52.146;20.718;2024-02-26T00:57:30;99580;;;6.5;66.4
85812;BME280;76886;52.146;20.718;2024-02-26T00:58:30;99580;;;6.5;67.0
85812;BME280;76886;52.146;20.718;2024-02-26T00:59:30;99590;;;6.5;67.4
85812;BME280;76886;52.146;20.718;2024-02-26T01:00:30;99580;;;6.5;66.9
85812;BME280;76886;52.146;20.718;2024-02-26T01:01:30;99580;;;6.5;66.9
85812;BME280;76886;52.146;20.718;2024-02-26T01:02:30;99580;;;6.5;66.6
85812;BME280;76886;52.146;20.718;2024-02-26T01:03:30;99580;;;6.5;66.0
85812;BME280;76886;52.146;20.718;2024-02-26T01:04:30;99580;;;6.5;65.7
85812;BME280;76886;52.146;20.718;2024-02-26T01:05:30;99580;;;6.4;66.1
85812;BME280;76886;52.146;20.718;2024-02-26T01:06:30;99580;;;6.4;65.7
85812;BME280;76886;52.146;20.718;2024-02-26T01:07:30;99590;;;6.3;66.6
85812;BME280;76886;52.146;20.718;2024-02-26T01:08:30;99580;;;6.0;67.7
85812;BME280;76886;52.146;20.718;2024-02-26T01:09:30;99590;;;5.6;69.2
85812;BME280;76886;52.146;20.718;2024-02-26T01:10:30;99590;;;5.2;70.9
85812;BME280;76886;52.146;20.718;2024-02-26T01:11:30;99590;;;5.0;71.7
85812;BME280;76886;52.146;20.718;2024-02-26T01:12:30;99590;;;5.1;71.3
85812;BME280;76886;52.146;20.718;2024-02-26T01:13:30;99590;;;5.1;71.4
85812;BME280;76886;52.146;20.718;2024-02-26T01:14:30;99590;;;5.3;70.5
85812;BME280;76886;52.146;20.718;2024-02-26T01:15:30;99590;;;5.4;70.4
85812;BME280;76886;52.146;20.718;2024-02-26T01:16:30;99590;;;5.5;70.2
85812;BME280;76886;52.146;20.718;2024-02-26T01:17:30;99590;;;5.5;70.6
85812;BME280;76886;52.146;20.718;2024-02-26T01:18:30;99590;;;5.4;70.8
85812;BME280;76886;52.146;20.718;2024-02-26T01:19:30;99590;;;5.5;70.0
85812;BME280;76886;52.146;20.718;2024-02-26T01:20:30;99590;;;5.4;71.0
85812;BME280;76886;52.146;20.718;2024-02-26T01:21:30;99590;;;5.3;70.6
85812;BME280;76886;52.146;20.718;2024-02-26T01:22:30;99590;;;5.5;69.6
85812;BME280;76886;52.146;20.718;2024-02-26T01:23:30;99590;;;5.6;69.7
85812;BME280;76886;52.146;20.718;2024-02-26T01:24:30;99590;;;5.6;69.8
85812;BME280;76886;52.146;20.718;2024-02-26T01:25:30;99600;;;5.6;70.3
85812;BME280;76886;52.146;20.718;2024-02-26T01:26:30;99590;;;5.6;70.7
85812;BME280;76886;52.146;20.718;2024-02-26T01:27:30;99590;;;5.5;71.0
85812;BME280;76886;52.146;20.718;2024-02-26T01:28:30;99590;;;5.5;71.6
85812;BME280;76886;52.146;20.718;2024-02-26T01:29:30;99590;;;5.6;71.1
85812;BME280;76886;52.146;20.718;2024-02-26T01:30:30;99590;;;5.7;70.5
85812;BME280;76886;52.146;20.718;2024-02-26T01:31:30;99590;;;5.8;69.6
85812;BME280;76886;52.146;20.718;2024-02-26T01:32:30;99590;;;5.8;69.2
85812;BME280;76886;52.146;20.718;2024-02-26T01:33:30;99590;;;5.8;69.2
85812;BME280;76886;52.146;20.718;2024-02-26T01:34:30;99590;;;5.6;69.8
85812;BME280;76886;52.146;20.718;2024-02-26T01:35:30;99590;;;5.4;69.9
85812;BME280;76886;52.146;20.718;2024-02-26T01:36:30;99590;;;5.2;71.8
85812;BME280;76886;52.146;20.718;2024-02-26T01:37:30;99590;;;5.0;72.5
85812;BME280;76886;52.146;20.718;2024-02-26T01:38:30;99600;;;5.2;71.7
85812;BME280;76886;52.146;20.718;2024-02-26T01:39:30;99590;;;5.3;71.2
85812;BME280;76886;52.146;20.718;2024-02-26T01:40:30;99590;;;5.5;70.3
85812;BME280;76886;52.146;20.718;2024-02-26T01:41:30;99590;;;5.6;69.7
85812;BME280;76886;52.146;20.718;2024-02-26T01:42:30;99590;;;5.6;69.0
85812;BME280;76886;52.146;20.718;2024-02-26T01:43:30;99590;;;5.7;69.5
85812;BME280;76886;52.146;20.718;2024-02-26T01:44:30;99590;;;5.7;69.5
85812;BME280;76886;52.146;20.718;2024-02-26T01:45:30;99590;;;5.8;69.2
85812;BME280;76886;52.146;20.718;2024-02-26T01:46:30;99590;;;5.8;69.0
85812;BME280;76886;52.146;20.718;2024-02-26T01:47:30;99590;;;5.9;68.0
85812;BME280;76886;52.146;20.718;2024-02-26T01:48:30;99590;;;5.8;68.9
85812;BME280;76886;52.146;20.718;2024-02-26T01:49:30;99590;;;5.7;69.0
85812;BME280;76886;52.146;20.718;2024-02-26T01:50:30;99600;;;5.8;68.4
85812;BME280;76886;52.146;20.718;2024-02-26T01:51:30;99590;;;5.8;67.8
85812;BME280;76886;52.146;20.718;2024-02-26T01:52:30;99600;;;5.8;68.0
85812;BME280;76886;52.146;20.718;2024-02-26T01:53:30;99590;;;5.9;67.8
85812;BME280;76886;52.146;20.718;2024-02-26T01:54:30;99600;;;5.9;67.6
85812;BME280;76886;52.146;20.718;2024-02-26T01:55:30;99590;;;5.9;67.3
85812;BME280;76886;52.146;20.718;2024-02-26T01:56:30;99600;;;5.9;67.0
85812;BME280;76886;52.146;20.718;2024-02-26T01:57:30;99600;;;5.9;68.3
85812;BME280;76886;52.146;20.718;2024-02-26T01:58:30;99600;;;5.9;68.0
85812;BME280;76886;52.146;20.718;2024-02-26T01:59:30;99600;;;5.9;67.4
85812;BME280;76886;52.146;20.718;2024-02-26T02:00:30;99600;;;5.9;67.0
85812;BME280;76886;52.146;20.718;2024-02-26T02:01:31;99600;;;5.9;67.5
85812;BME280;76886;52.146;20.718;2024-02-26T02:02:30;99600;;;5.9;67.8
85812;BME280;76886;52.146;20.718;2024-02-26T02:03:30;99600;;;5.9;67.7
85812;BME280;76886;52.146;20.718;2024-02-26T02:04:30;99600;;;5.9;67.4
85812;BME280;76886;52.146;20.718;2024-02-26T02:05:30;99590;;;5.9;67.3
85812;BME280;76886;52.146;20.718;2024-02-26T02:06:30;99590;;;5.9;67.0
85812;BME280;76886;52.146;20.718;2024-02-26T02:07:30;99590;;;5.9;67.2
85812;BME280;76886;52.146;20.718;2024-02-26T02:08:30;99590;;;5.9;66.8
85812;BME280;76886;52.146;20.718;2024-02-26T02:09:30;99590;;;5.9;67.1
85812;BME280;76886;52.146;20.718;2024-02-26T02:10:30;99590;;;5.9;67.1
85812;BME280;76886;52.146;20.718;2024-02-26T02:11:30;99590;;;5.9;67.2
85812;BME280;76886;52.146;20.718;2024-02-26T02:12:30;99590;;;5.8;67.7
85812;BME280;76886;52.146;20.718;2024-02-26T02:13:30;99590;;;5.8;67.7
85812;BME280;76886;52.146;20.718;2024-02-26T02:14:30;99590;;;5.7;67.3
85812;BME280;76886;52.146;20.718;2024-02-26T02:15:30;99590;;;5.6;67.8
85812;BME280;76886;52.146;20.718;2024-02-26T02:16:30;99590;;;5.5;68.2
85812;BME280;76886;52.146;20.718;2024-02-26T02:17:30;99590;;;5.4;68.3
85812;BME280;76886;52.146;20.718;2024-02-26T02:18:30;99590;;;5.1;69.7
85812;BME280;76886;52.146;20.718;2024-02-26T02:19:30;99590;;;5.1;69.7
85812;BME280;76886;52.146;20.718;2024-02-26T02:20:32;99590;;;5.1;69.8
85812;BME280;76886;52.146;20.718;2024-02-26T02:21:30;99580;;;5.2;69.3
85812;BME280;76886;52.146;20.718;2024-02-26T02:22:30;99590;;;5.2;69.4
85812;BME280;76886;52.146;20.718;2024-02-26T02:23:30;99590;;;5.2;69.1
85812;BME280;76886;52.146;20.718;2024-02-26T02:24:30;99590;;;5.3;68.8
85812;BME280;76886;52.146;20.718;2024-02-26T02:25:30;99590;;;5.3;68.5
85812;BME280;76886;52.146;20.718;2024-02-26T02:26:30;99590;;;5.3;68.3
85812;BME280;76886;52.146;20.718;2024-02-26T02:27:30;99590;;;5.3;68.0
85812;BME280;76886;52.146;20.718;2024-02-26T02:28:30;99590;;;5.4;67.7
85812;BME280;76886;52.146;20.718;2024-02-26T02:29:30;99590;;;5.4;67.2
85812;BME280;76886;52.146;20.718;2024-02-26T02:30:30;99590;;;5.4;66.9
85812;BME280;76886;52.146;20.718;2024-02-26T02:31:30;99590;;;5.4;67.0
85812;BME280;76886;52.146;20.718;2024-02-26T02:32:30;99600;;;5.5;66.8
85812;BME280;76886;52.146;20.718;2024-02-26T02:33:30;99590;;;5.4;66.8
85812;BME280;76886;52.146;20.718;2024-02-26T02:34:30;99590;;;5.3;67.7
85812;BME280;76886;52.146;20.718;2024-02-26T02:35:30;99590;;;5.3;67.8
85812;BME280;76886;52.146;20.718;2024-02-26T02:36:30;99590;;;5.3;67.7
85812;BME280;76886;52.146;20.718;2024-02-26T02:37:30;99590;;;5.2;68.5
85812;BME280;76886;52.146;20.718;2024-02-26T02:38:30;99590;;;5.3;68.2
85812;BME280;76886;52.146;20.718;2024-02-26T02:39:30;99590;;;5.2;67.9
85812;BME280;76886;52.146;20.718;2024-02-26T02:40:30;99590;;;5.3;67.7
85812;BME280;76886;52.146;20.718;2024-02-26T02:41:30;99590;;;5.3;67.5
85812;BME280;76886;52.146;20.718;2024-02-26T02:42:30;99590;;;5.2;67.9
85812;BME280;76886;52.146;20.718;2024-02-26T02:43:30;99600;;;5.2;67.7
85812;BME280;76886;52.146;20.718;2024-02-26T02:44:30;99600;;;5.3;67.6
85812;BME280;76886;52.146;20.718;2024-02-26T02:45:30;99600;;;5.3;67.0
85812;BME280;76886;52.146;20.718;2024-02-26T02:46:30;99610;;;5.3;67.2
85812;BME280;76886;52.146;20.718;2024-02-26T02:47:30;99610;;;5.2;67.8
85812;BME280;76886;52.146;20.718;2024-02-26T02:48:30;99620;;;5.2;67.9
85812;BME280;76886;52.146;20.718;2024-02-26T02:49:30;99620;;;5.2;67.7
85812;BME280;76886;52.146;20.718;2024-02-26T02:50:30;99610;;;5.2;68.0
85812;BME280;76886;52.146;20.718;2024-02-26T02:51:30;99620;;;5.2;68.2
85812;BME280;76886;52.146;20.718;2024-02-26T02:52:30;99620;;;5.1;69.0
85812;BME280;76886;52.146;20.718;2024-02-26T02:53:30;99610;;;5.2;68.6
85812;BME280;76886;52.146;20.718;2024-02-26T02:54:30;99610;;;5.0;69.8
85812;BME280;76886;52.146;20.718;2024-02-26T02:55:30;99610;;;5.0;69.1
85812;BME280;76886;52.146;20.718;2024-02-26T02:56:30;99610;;;4.8;70.2
85812;BME280;76886;52.146;20.718;2024-02-26T02:57:30;99610;;;4.9;69.7
85812;BME280;76886;52.146;20.718;2024-02-26T02:58:30;99620;;;4.9;69.1
85812;BME280;76886;52.146;20.718;2024-02-26T02:59:30;99610;;;4.9;68.5
85812;BME280;76886;52.146;20.718;2024-02-26T03:00:30;99620;;;4.9;68.9
85812;BME280;76886;52.146;20.718;2024-02-26T03:01:30;99620;;;4.9;69.4
85812;BME280;76886;52.146;20.718;2024-02-26T03:02:30;99610;;;5.0;68.7
85812;BME280;76886;52.146;20.718;2024-02-26T03:03:30;99610;;;5.0;68.4
85812;BME280;76886;52.146;20.718;2024-02-26T03:04:30;99610;;;5.1;68.1
85812;BME280;76886;52.146;20.718;2024-02-26T03:05:30;99620;;;5.1;68.2
85812;BME280;76886;52.146;20.718;2024-02-26T03:06:30;99610;;;5.1;68.1
85812;BME280;76886;52.146;20.718;2024-02-26T03:07:30;99610;;;5.1;67.8
85812;BME280;76886;52.146;20.718;2024-02-26T03:08:30;99610;;;5.1;67.7
85812;BME280;76886;52.146;20.718;2024-02-26T03:09:30;99610;;;5.1;67.8
85812;BME280;76886;52.146;20.718;2024-02-26T03:10:30;99610;;;5.1;67.5
85812;BME280;76886;52.146;20.718;2024-02-26T03:11:30;99620;;;5.1;67.3
85812;BME280;76886;52.146;20.718;2024-02-26T03:12:30;99620;;;5.1;67.3
85812;BME280;76886;52.146;20.718;2024-02-26T03:13:30;99620;;;5.1;67.1
85812;BME280;76886;52.146;20.718;2024-02-26T03:14:30;99620;;;5.1;67.5
85812;BME280;76886;52.146;20.718;2024-02-26T03:15:30;99620;;;5.1;67.3
85812;BME280;76886;52.146;20.718;2024-02-26T03:16:30;99620;;;5.1;67.8
85812;BME280;76886;52.146;20.718;2024-02-26T03:17:30;99620;;;5.1;67.2
85812;BME280;76886;52.146;20.718;2024-02-26T03:18:30;99620;;;5.1;66.9
85812;BME280;76886;52.146;20.718;2024-02-26T03:19:30;99620;;;5.1;67.2
85812;BME280;76886;52.146;20.718;2024-02-26T03:20:30;99620;;;5.1;67.2
85812;BME280;76886;52.146;20.718;2024-02-26T03:21:30;99620;;;5.1;67.7
85812;BME280;76886;52.146;20.718;2024-02-26T03:22:30;99620;;;5.1;67.3
85812;BME280;76886;52.146;20.718;2024-02-26T03:23:30;99620;;;5.1;67.2
85812;BME280;76886;52.146;20.718;2024-02-26T03:24:30;99620;;;5.1;68.5
85812;BME280;76886;52.146;20.718;2024-02-26T03:25:30;99630;;;5.1;68.6
85812;BME280;76886;52.146;20.718;2024-02-26T03:26:30;99620;;;5.1;68.2
85812;BME280;76886;52.146;20.718;2024-02-26T03:27:30;99630;;;5.0;69.0
85812;BME280;76886;52.146;20.718;2024-02-26T03:28:30;99630;;;5.1;68.3
85812;BME280;76886;52.146;20.718;2024-02-26T03:29:30;99630;;;5.1;68.4
85812;BME280;76886;52.146;20.718;2024-02-26T03:30:30;99630;;;5.1;68.5
85812;BME280;76886;52.146;20.718;2024-02-26T03:31:30;99630;;;5.1;68.4
85812;BME280;76886;52.146;20.718;2024-02-26T03:32:30;99630;;;5.2;67.5
85812;BME280;76886;52.146;20.718;2024-02-26T03:33:30;99630;;;5.2;67.6
85812;BME280;76886;52.146;20.718;2024-02-26T03:34:30;99630;;;5.2;67.6
85812;BME280;76886;52.146;20.718;2024-02-26T03:35:30;99630;;;5.2;67.8
85812;BME280;76886;52.146;20.718;2024-02-26T03:36:30;99620;;;5.2;67.4
85812;BME280;76886;52.146;20.718;2024-02-26T03:37:30;99620;;;5.2;67.7
85812;BME280;76886;52.146;20.718;2024-02-26T03:38:30;99620;;;5.2;68.2
85812;BME280;76886;52.146;20.718;2024-02-26T03:39:30;99620;;;5.3;67.8
85812;BME280;76886;52.146;20.718;2024-02-26T03:40:30;99620;;;5.3;67.5
85812;BME280;76886;52.146;20.718;2024-02-26T03:41:30;99620;;;5.3;67.3
85812;BME280;76886;52.146;20.718;2024-02-26T03:42:30;99610;;;5.2;68.6
85812;BME280;76886;52.146;20.718;2024-02-26T03:43:30;99620;;;5.2;68.3
85812;BME280;76886;52.146;20.718;2024-02-26T03:44:30;99620;;;5.3;68.5
85812;BME280;76886;52.146;20.718;2024-02-26T03:45:30;99610;;;5.3;67.7
85812;BME280;76886;52.146;20.718;2024-02-26T03:46:30;99610;;;5.2;69.1
85812;BME280;76886;52.146;20.718;2024-02-26T03:47:30;99610;;;5.1;69.0
85812;BME280;76886;52.146;20.718;2024-02-26T03:48:30;99620;;;5.1;68.5
85812;BME280;76886;52.146;20.718;2024-02-26T03:49:30;99620;;;4.9;69.1
85812;BME280;76886;52.146;20.718;2024-02-26T03:50:30;99610;;;4.8;69.4
85812;BME280;76886;52.146;20.718;2024-02-26T03:51:30;99620;;;4.8;69.6
85812;BME280;76886;52.146;20.718;2024-02-26T03:52:30;99620;;;4.9;69.1
85812;BME280;76886;52.146;20.718;2024-02-26T03:53:30;99620;;;5.0;68.5
85812;BME280;76886;52.146;20.718;2024-02-26T03:54:30;99620;;;5.0;68.2
85812;BME280;76886;52.146;20.718;2024-02-26T03:55:30;99620;;;5.0;68.0
85812;BME280;76886;52.146;20.718;2024-02-26T03:56:30;99620;;;5.1;67.7
85812;BME280;76886;52.146;20.718;2024-02-26T03:57:30;99620;;;5.1;67.7
85812;BME280;76886;52.146;20.718;2024-02-26T03:58:30;99620;;;5.1;67.6
85812;BME280;76886;52.146;20.718;2024-02-26T03:59:30;99620;;;5.1;67.5
85812;BME280;76886;52.146;20.718;2024-02-26T04:00:30;99620;;;5.1;67.4
85812;BME280;76886;52.146;20.718;2024-02-26T04:01:30;99620;;;5.1;67.5
85812;BME280;76886;52.146;20.718;2024-02-26T04:02:30;99620;;;5.0;67.7
85812;BME280;76886;52.146;20.718;2024-02-26T04:03:30;99620;;;4.9;68.0
85812;BME280;76886;52.146;20.718;2024-02-26T04:04:33;99620;;;4.8;68.6
85812;BME280;76886;52.146;20.718;2024-02-26T04:05:30;99620;;;4.7;69.0
85812;BME280;76886;52.146;20.718;2024-02-26T04:06:30;99620;;;4.6;69.7
85812;BME280;76886;52.146;20.718;2024-02-26T04:07:30;99620;;;4.7;69.1
85812;BME280;76886;52.146;20.718;2024-02-26T04:08:30;99620;;;4.7;68.5
85812;BME280;76886;52.146;20.718;2024-02-26T04:09:31;99630;;;4.7;69.0
85812;BME280;76886;52.146;20.718;2024-02-26T04:10:30;99620;;;4.8;68.2
85812;BME280;76886;52.146;20.718;2024-02-26T04:11:30;99620;;;4.8;67.9
85812;BME280;76886;52.146;20.718;2024-02-26T04:12:30;99620;;;4.8;67.6
85812;BME280;76886;52.146;20.718;2024-02-26T04:13:30;99620;;;4.8;67.7
85812;BME280;76886;52.146;20.718;2024-02-26T04:14:30;99620;;;4.8;67.9
85812;BME280;76886;52.146;20.718;2024-02-26T04:15:30;99620;;;4.8;67.6
85812;BME280;76886;52.146;20.718;2024-02-26T04:16:30;99620;;;4.9;67.8
85812;BME280;76886;52.146;20.718;2024-02-26T04:17:30;99620;;;4.9;67.6
85812;BME280;76886;52.146;20.718;2024-02-26T04:18:30;99620;;;4.9;67.4
85812;BME280;76886;52.146;20.718;2024-02-26T04:19:30;99620;;;4.7;68.7
85812;BME280;76886;52.146;20.718;2024-02-26T04:20:30;99620;;;4.6;68.7
85812;BME280;76886;52.146;20.718;2024-02-26T04:21:30;99630;;;4.6;69.0
85812;BME280;76886;52.146;20.718;2024-02-26T04:22:30;99630;;;4.7;68.4
85812;BME280;76886;52.146;20.718;2024-02-26T04:23:30;99630;;;4.7;68.1
85812;BME280;76886;52.146;20.718;2024-02-26T04:24:30;99630;;;4.7;68.2
85812;BME280;76886;52.146;20.718;2024-02-26T04:25:30;99630;;;4.6;68.9
85812;BME280;76886;52.146;20.718;2024-02-26T04:26:30;99630;;;4.1;70.9
85812;BME280;76886;52.146;20.718;2024-02-26T04:27:30;99630;;;3.6;73.5
85812;BME280;76886;52.146;20.718;2024-02-26T04:28:30;99630;;;3.7;73.3
85812;BME280;76886;52.146;20.718;2024-02-26T04:29:30;99630;;;3.9;72.5
85812;BME280;76886;52.146;20.718;2024-02-26T04:30:30;99630;;;3.9;72.1
85812;BME280;76886;52.146;20.718;2024-02-26T04:31:30;99630;;;3.9;72.2
85812;BME280;76886;52.146;20.718;2024-02-26T04:32:30;99630;;;4.0;71.9
85812;BME280;76886;52.146;20.718;2024-02-26T04:33:33;99630;;;4.0;71.8
85812;BME280;76886;52.146;20.718;2024-02-26T04:34:30;99630;;;4.2;70.8
85812;BME280;76886;52.146;20.718;2024-02-26T04:35:30;99630;;;3.9;72.0
85812;BME280;76886;52.146;20.718;2024-02-26T04:36:30;99630;;;3.8;72.9
85812;BME280;76886;52.146;20.718;2024-02-26T04:37:30;99630;;;3.8;72.9
85812;BME280;76886;52.146;20.718;2024-02-26T04:38:30;99630;;;3.9;72.2
85812;BME280;76886;52.146;20.718;2024-02-26T04:39:30;99630;;;4.1;71.4
85812;BME280;76886;52.146;20.718;2024-02-26T04:40:30;99620;;;4.1;71.2
85812;BME280;76886;52.146;20.718;2024-02-26T04:41:30;99630;;;4.2;71.2
85812;BME280;76886;52.146;20.718;2024-02-26T04:42:30;99620;;;4.2;71.1
85812;BME280;76886;52.146;20.718;2024-02-26T04:43:30;99620;;;4.2;70.6
85812;BME280;76886;52.146;20.718;2024-02-26T04:44:30;99630;;;4.1;71.6
85812;BME280;76886;52.146;20.718;2024-02-26T04:45:30;99620;;;4.1;71.1
85812;BME280;76886;52.146;20.718;2024-02-26T04:46:30;99620;;;4.0;71.7
85812;BME280;76886;52.146;20.718;2024-02-26T04:47:30;99630;;;3.9;72.4
85812;BME280;76886;52.146;20.718;2024-02-26T04:48:30;99620;;;3.7;73.5
85812;BME280;76886;52.146;20.718;2024-02-26T04:49:30;99620;;;3.8;73.5
85812;BME280;76886;52.146;20.718;2024-02-26T04:50:30;99620;;;4.0;72.1
85812;BME280;76886;52.146;20.718;2024-02-26T04:51:30;99620;;;4.1;71.2
85812;BME280;76886;52.146;20.718;2024-02-26T04:52:30;99620;;;4.2;70.6
85812;BME280;76886;52.146;20.718;2024-02-26T04:53:30;99620;;;4.3;70.3
85812;BME280;76886;52.146;20.718;2024-02-26T04:54:30;99620;;;4.3;70.8
85812;BME280;76886;52.146;20.718;2024-02-26T04:55:30;99620;;;4.2;71.1
85812;BME280;76886;52.146;20.718;2024-02-26T04:56:30;99620;;;4.2;71.2
85812;BME280;76886;52.146;20.718;2024-02-26T04:57:30;99620;;;4.2;71.3
85812;BME280;76886;52.146;20.718;2024-02-26T04:58:30;99620;;;4.3;70.9
85812;BME280;76886;52.146;20.718;2024-02-26T04:59:30;99620;;;4.4;70.7
85812;BME280;76886;52.146;20.718;2024-02-26T05:00:30;99620;;;4.4;70.3
85812;BME280;76886;52.146;20.718;2024-02-26T05:01:30;99630;;;4.5;70.4
85812;BME280;76886;52.146;20.718;2024-02-26T05:02:30;99620;;;4.5;70.5
85812;BME280;76886;52.146;20.718;2024-02-26T05:03:30;99630;;;4.6;70.5
85812;BME280;76886;52.146;20.718;2024-02-26T05:04:30;99630;;;4.6;70.9
85812;BME280;76886;52.146;20.718;2024-02-26T05:05:30;99630;;;4.3;73.2
85812;BME280;76886;52.146;20.718;2024-02-26T05:06:30;99630;;;4.3;73.9
85812;BME280;76886;52.146;20.718;2024-02-26T05:07:30;99630;;;4.3;73.8
85812;BME280;76886;52.146;20.718;2024-02-26T05:08:30;99630;;;4.4;73.6
85812;BME280;76886;52.146;20.718;2024-02-26T05:09:30;99630;;;4.4;73.6
85812;BME280;76886;52.146;20.718;2024-02-26T05:10:30;99630;;;4.4;73.8
85812;BME280;76886;52.146;20.718;2024-02-26T05:11:30;99630;;;4.5;72.9
85812;BME280;76886;52.146;20.718;2024-02-26T05:12:30;99640;;;4.5;72.7
85812;BME280;76886;52.146;20.718;2024-02-26T05:13:30;99630;;;4.6;72.3
85812;BME280;76886;52.146;20.718;2024-02-26T05:14:30;99630;;;4.7;72.4
85812;BME280;76886;52.146;20.718;2024-02-26T05:15:30;99630;;;4.8;71.6
85812;BME280;76886;52.146;20.718;2024-02-26T05:16:30;99630;;;4.8;71.5
85812;BME280;76886;52.146;20.718;2024-02-26T05:17:30;99630;;;4.9;71.5
85812;BME280;76886;52.146;20.718;2024-02-26T05:18:30;99630;;;4.9;71.3
85812;BME280;76886;52.146;20.718;2024-02-26T05:19:30;99640;;;5.0;70.7
85812;BME280;76886;52.146;20.718;2024-02-26T05:20:30;99640;;;5.1;70.5
85812;BME280;76886;52.146;20.718;2024-02-26T05:21:30;99640;;;5.1;71.2
85812;BME280;76886;52.146;20.718;2024-02-26T05:22:30;99640;;;5.1;70.7
85812;BME280;76886;52.146;20.718;2024-02-26T05:23:30;99640;;;5.1;70.6
85812;BME280;76886;52.146;20.718;2024-02-26T05:24:30;99640;;;5.2;69.9
85812;BME280;76886;52.146;20.718;2024-02-26T05:25:30;99640;;;5.1;71.7
85812;BME280;76886;52.146;20.718;2024-02-26T05:26:30;99630;;;5.1;71.5
85812;BME280;76886;52.146;20.718;2024-02-26T05:27:30;99640;;;5.1;71.4
85812;BME280;76886;52.146;20.718;2024-02-26T05:28:30;99640;;;5.2;71.1
85812;BME280;76886;52.146;20.718;2024-02-26T05:29:30;99640;;;5.2;71.4
85812;BME280;76886;52.146;20.718;2024-02-26T05:30:30;99650;;;5.3;70.7
85812;BME280;76886;52.146;20.718;2024-02-26T05:31:30;99650;;;5.3;71.4
85812;BME280;76886;52.146;20.718;2024-02-26T05:32:30;99650;;;5.3;71.2
85812;BME280;76886;52.146;20.718;2024-02-26T05:33:30;99650;;;5.3;71.5
85812;BME280;76886;52.146;20.718;2024-02-26T05:34:30;99650;;;5.4;71.6
85812;BME280;76886;52.146;20.718;2024-02-26T05:35:30;99650;;;5.3;72.4
85812;BME280;76886;52.146;20.718;2024-02-26T05:36:30;99650;;;5.3;72.2
85812;BME280;76886;52.146;20.718;2024-02-26T05:37:30;99660;;;5.4;71.6
85812;BME280;76886;52.146;20.718;2024-02-26T05:38:30;99650;;;5.4;71.9
85812;BME280;76886;52.146;20.718;2024-02-26T05:39:30;99650;;;5.5;71.3
85812;BME280;76886;52.146;20.718;2024-02-26T05:40:30;99650;;;5.5;72.1